Terminal Aerodrome Forecast
Issued by NWS

Current Version | Previous Version | Text Only | Print | Product List | Glossary On
Versions: 1 2 3 4 5 6 7 8 9 10 11 12 13 14 15 16 17 18
000
FTUS42 KMLB 241400 AAA
TAFSFB
TAF AMD
KSFB 241406Z 2414/2512 19009KT P6SM SCT015
      TEMPO 2414/2416 BKN013
     FM241700 22011KT P6SM SCT035
     FM250100 20004KT P6SM SCT040 BKN250
     FM250800 19004KT 4SM BR BKN008=

USA.gov is the U.S. government's official web portal to all federal, state and local government web resources and services.